Terminal Aerodrome Forecast
Issued by NWS

Home | Current Version | Previous Version | Text Only | Print | Product List | Glossary On
Versions: 1 2 3 4 5 6 7 8 9 10 11 12 13 14 15 16 17 18 19 20 21 22 23 24 25 26 27 28 29 30
000
FTUS43 KILX 231608 AAB
TAFDEC
TAF AMD
KDEC 231608Z 2316/2412 29015G23KT 3SM BR OVC007
      TEMPO 2316/2318 2SM -DZ BR SCT007 OVC010
     FM231800 29013G23KT P6SM OVC010
     FM232200 29010G20KT P6SM OVC025
     FM240300 29008KT P6SM SCT040
     FM240700 27006KT P6SM BKN100=

USA.gov is the U.S. government's official web portal to all federal, state and local government web resources and services.